Time;durP1;ratioP1;P1;durP2;ratioP2;P2;SDS_P1;SDS_P2;PMS_P1;PMS_P2;Temp;Humidity;BMP_temperature;BMP_pressure;BME280_temperature;BME280_humidity;BME280_pressure;Samples;Min_cycle;Max_cycle;Signal;HPM_P1;HPM_P2
2023/03/03 00:00:28;;;;;;;20.38;9.02;;;;;;;;;;5014119;28;20355;-65
2023/03/03 00:03:00;;;;;;;17.05;8.77;;;;;;;;;;5013490;28;20104;-64
2023/03/03 00:05:27;;;;;;;18.15;8.65;;;;;;;;;;5012851;28;20528;-65
2023/03/03 00:07:54;;;;;;;17.52;8.70;;;;;;;;;;5012851;28;20053;-64
2023/03/03 00:10:22;;;;;;;17.55;8.65;;;;;;;;;;5013150;28;20046;-64
2023/03/03 00:12:49;;;;;;;19.90;8.82;;;;;;;;;;5013417;28;20049;-65
2023/03/03 00:15:18;;;;;;;15.60;8.05;;;;;;;;;;5013261;28;20133;-64
2023/03/03 00:17:45;;;;;;;19.58;9.15;;;;;;;;;;5012577;28;20398;-64
2023/03/03 00:20:30;;;;;;;18.80;8.40;;;;;;;;;;5012763;28;20050;-65
2023/03/03 00:23:04;;;;;;;13.10;8.23;;;;;;;;;;5012993;28;20072;-64
2023/03/03 00:25:33;;;;;;;;;;;;;;;;;;5013954;28;20046;-65
2023/03/03 00:28:01;;;;;;;13.95;7.30;;;;;;;;;;5013076;28;19931;-65
2023/03/03 00:30:28;;;;;;;17.35;8.20;;;;;;;;;;5013807;28;20046;-64
2023/03/03 00:32:55;;;;;;;16.73;8.45;;;;;;;;;;5013130;28;20045;-64
2023/03/03 00:35:27;;;;;;;19.58;9.00;;;;;;;;;;5013062;28;20046;-64
2023/03/03 00:37:56;;;;;;;17.10;8.82;;;;;;;;;;5012713;28;20084;-64
2023/03/03 00:40:25;;;;;;;18.08;8.25;;;;;;;;;;5012855;28;20046;-64
2023/03/03 00:42:54;;;;;;;17.30;8.65;;;;;;;;;;5013348;28;20057;-65
2023/03/03 00:45:35;;;;;;;18.00;9.45;;;;;;;;;;5013439;28;20045;-65
2023/03/03 00:48:24;;;;;;;14.48;7.75;;;;;;;;;;5013195;28;20096;-65
2023/03/03 00:50:53;;;;;;;15.80;8.18;;;;;;;;;;5011985;28;20466;-64
2023/03/03 00:53:20;;;;;;;16.05;8.88;;;;;;;;;;5012567;28;20560;-65
2023/03/03 00:55:49;;;;;;;18.88;9.07;;;;;;;;;;5013386;28;20042;-64
2023/03/03 00:58:20;;;;;;;15.93;8.77;;;;;;;;;;5012160;28;20112;-65
2023/03/03 01:00:47;;;;;;;15.98;7.78;;;;;;;;;;5013115;28;20101;-64
2023/03/03 01:03:16;;;;;;;16.35;8.80;;;;;;;;;;5012387;28;20058;-64
2023/03/03 01:05:43;;;;;;;19.40;8.75;;;;;;;;;;5012782;28;20054;-65
2023/03/03 01:08:10;;;;;;;16.08;8.25;;;;;;;;;;5013416;28;20065;-64
2023/03/03 01:10:41;;;;;;;21.33;9.07;;;;;;;;;;5013888;28;20052;-64
2023/03/03 01:13:08;;;;;;;19.30;9.15;;;;;;;;;;5012732;28;20046;-64
2023/03/03 01:15:38;;;;;;;19.23;8.82;;;;;;;;;;5012830;28;20469;-64
2023/03/03 01:18:05;;;;;;;19.73;9.32;;;;;;;;;;5012586;28;20045;-65
2023/03/03 01:20:31;;;;;;;19.50;9.57;;;;;;;;;;5012687;28;20046;-65
2023/03/03 01:22:58;;;;;;;15.75;8.27;;;;;;;;;;5012414;28;20113;-65
2023/03/03 01:25:24;;;;;;;19.67;9.13;;;;;;;;;;5012943;28;20524;-65
2023/03/03 01:27:51;;;;;;;21.10;9.13;;;;;;;;;;5012647;28;20060;-66
2023/03/03 01:30:18;;;;;;;16.98;8.35;;;;;;;;;;5012370;28;20042;-65
2023/03/03 01:32:46;;;;;;;18.25;8.50;;;;;;;;;;5014931;28;20351;-66
2023/03/03 01:35:13;;;;;;;19.77;8.90;;;;;;;;;;5016164;28;20528;-66
2023/03/03 01:37:39;;;;;;;20.08;8.80;;;;;;;;;;5015918;28;20050;-65
2023/03/03 01:40:12;;;;;;;18.23;9.20;;;;;;;;;;5016607;28;20050;-65
2023/03/03 01:42:38;;;;;;;19.20;8.60;;;;;;;;;;5016251;28;20057;-66
2023/03/03 01:45:19;;;;;;;18.42;8.43;;;;;;;;;;5015043;28;20050;-66
2023/03/03 01:47:52;;;;;;;17.73;8.85;;;;;;;;;;5015838;28;20409;-65
2023/03/03 01:50:28;;;;;;;16.60;9.13;;;;;;;;;;5015807;28;20046;-65
2023/03/03 01:52:55;;;;;;;16.05;8.45;;;;;;;;;;5015503;28;20052;-65
2023/03/03 01:55:29;;;;;;;18.55;8.60;;;;;;;;;;5015732;28;20049;-66
2023/03/03 01:57:59;;;;;;;15.10;8.25;;;;;;;;;;5015674;28;20053;-65
2023/03/03 02:00:26;;;;;;;16.63;8.40;;;;;;;;;;5015708;28;20056;-65
2023/03/03 02:02:55;;;;;;;16.45;8.43;;;;;;;;;;5015997;28;20049;-65
2023/03/03 02:05:22;;;;;;;16.90;9.45;;;;;;;;;;5015826;28;20084;-65
2023/03/03 02:07:48;;;;;;;21.73;9.35;;;;;;;;;;5015638;28;20501;-65
2023/03/03 02:10:16;;;;;;;18.40;8.40;;;;;;;;;;5015894;28;20412;-65
2023/03/03 02:12:46;;;;;;;16.48;8.45;;;;;;;;;;5015942;28;20052;-66
2023/03/03 02:15:17;;;;;;;21.45;9.23;;;;;;;;;;5015945;28;20441;-65
2023/03/03 02:17:45;;;;;;;21.33;9.27;;;;;;;;;;5015784;28;20060;-65
2023/03/03 02:20:20;;;;;;;20.75;9.27;;;;;;;;;;5015728;28;20046;-65
2023/03/03 02:22:52;;;;;;;19.60;9.18;;;;;;;;;;5015469;28;20524;-66
2023/03/03 02:25:26;;;;;;;17.05;8.48;;;;;;;;;;5015231;28;20057;-66
2023/03/03 02:27:55;;;;;;;20.25;9.77;;;;;;;;;;5015098;28;20053;-65
2023/03/03 02:30:24;;;;;;;21.05;8.73;;;;;;;;;;5015534;28;20045;-66
2023/03/03 02:32:51;;;;;;;19.23;9.45;;;;;;;;;;5015327;28;20525;-65
2023/03/03 02:35:30;;;;;;;17.58;9.30;;;;;;;;;;5014819;28;20061;-66
2023/03/03 02:38:04;;;;;;;21.90;9.15;;;;;;;;;;5014821;28;20050;-65
2023/03/03 02:40:36;;;;;;;16.45;8.77;;;;;;;;;;5014921;28;20254;-65
2023/03/03 02:43:05;;;;;;;16.67;8.65;;;;;;;;;;5014206;28;20064;-66
2023/03/03 02:45:31;;;;;;;17.73;9.25;;;;;;;;;;5014323;28;20052;-65
2023/03/03 02:47:58;;;;;;;16.38;8.18;;;;;;;;;;5015433;28;20621;-66
2023/03/03 02:50:24;;;;;;;19.75;8.60;;;;;;;;;;5014334;28;20060;-65
2023/03/03 02:52:51;;;;;;;24.42;9.40;;;;;;;;;;5014401;28;20062;-65
2023/03/03 02:55:18;;;;;;;21.27;9.02;;;;;;;;;;5014561;28;20052;-66
2023/03/03 02:57:44;;;;;;;20.40;8.57;;;;;;;;;;5014622;28;20673;-65
2023/03/03 03:00:13;;;;;;;18.00;9.32;;;;;;;;;;5014055;28;20046;-66
2023/03/03 03:02:39;;;;;;;20.10;9.43;;;;;;;;;;5013847;28;20054;-65
2023/03/03 03:05:07;;;;;;;18.38;8.52;;;;;;;;;;5014837;28;20509;-65
2023/03/03 03:07:34;;;;;;;17.25;8.43;;;;;;;;;;5014129;28;20057;-65
2023/03/03 03:10:00;;;;;;;23.58;9.80;;;;;;;;;;5014514;28;20406;-65
2023/03/03 03:12:27;;;;;;;20.85;9.07;;;;;;;;;;5014180;28;20289;-65
2023/03/03 03:14:53;;;;;;;18.35;8.10;;;;;;;;;;5014144;28;20050;-65
2023/03/03 03:17:21;;;;;;;17.20;8.98;;;;;;;;;;5014291;28;20042;-65
2023/03/03 03:19:48;;;;;;;18.20;8.57;;;;;;;;;;5015301;28;20046;-66
2023/03/03 03:22:14;;;;;;;16.27;8.20;;;;;;;;;;5014883;28;20046;-65
2023/03/03 03:24:41;;;;;;;17.05;8.85;;;;;;;;;;5014972;28;20510;-65
2023/03/03 03:27:07;;;;;;;17.42;9.23;;;;;;;;;;5013284;28;20053;-65
2023/03/03 03:29:34;;;;;;;17.65;7.70;;;;;;;;;;5014469;28;20412;-65
2023/03/03 03:32:00;;;;;;;16.10;8.70;;;;;;;;;;5014070;28;20045;-66
2023/03/03 03:34:28;;;;;;;14.93;8.00;;;;;;;;;;5014202;28;20505;-66
2023/03/03 03:36:55;;;;;;;17.30;8.00;;;;;;;;;;5013671;28;20069;-65
2023/03/03 03:39:21;;;;;;;17.77;8.65;;;;;;;;;;5014039;28;20046;-65
2023/03/03 03:41:48;;;;;;;18.08;8.93;;;;;;;;;;5013800;28;20056;-65
2023/03/03 03:44:14;;;;;;;15.65;8.20;;;;;;;;;;5014168;28;20051;-65
2023/03/03 03:46:41;;;;;;;16.73;8.07;;;;;;;;;;5013748;28;20046;-65
2023/03/03 03:49:07;;;;;;;19.40;8.25;;;;;;;;;;5013403;28;20041;-65
2023/03/03 03:51:40;;;;;;;18.80;8.43;;;;;;;;;;5014969;28;20500;-65
2023/03/03 03:54:06;;;;;;;18.25;8.85;;;;;;;;;;5013803;28;20136;-63
2023/03/03 03:56:33;;;;;;;18.85;9.75;;;;;;;;;;5014620;28;20045;-65
2023/03/03 03:58:59;;;;;;;16.52;8.57;;;;;;;;;;5013161;28;20042;-64
2023/03/03 04:01:27;;;;;;;21.98;8.65;;;;;;;;;;5013366;28;20061;-65
2023/03/03 04:03:53;;;;;;;19.23;8.32;;;;;;;;;;5012003;28;20055;-65
2023/03/03 04:06:20;;;;;;;16.77;8.68;;;;;;;;;;5011949;28;20046;-65
2023/03/03 04:08:47;;;;;;;15.60;8.15;;;;;;;;;;5010529;28;20413;-66
2023/03/03 04:11:14;;;;;;;13.38;8.23;;;;;;;;;;5010896;28;20053;-66
2023/03/03 04:13:41;;;;;;;16.00;8.93;;;;;;;;;;5010151;28;20045;-66
2023/03/03 04:16:07;;;;;;;15.77;7.90;;;;;;;;;;5011126;28;20046;-66
2023/03/03 04:18:34;;;;;;;14.98;9.38;;;;;;;;;;5010220;28;20053;-66
2023/03/03 04:21:00;;;;;;;15.15;8.30;;;;;;;;;;5010763;28;20058;-66
2023/03/03 04:23:27;;;;;;;23.98;9.18;;;;;;;;;;5010381;28;20048;-66
2023/03/03 04:25:55;;;;;;;18.17;8.40;;;;;;;;;;5010630;28;20041;-66
2023/03/03 04:28:23;;;;;;;18.25;9.40;;;;;;;;;;5010619;28;20053;-66
2023/03/03 04:30:49;;;;;;;17.25;8.13;;;;;;;;;;5010702;28;20477;-66
2023/03/03 04:33:16;;;;;;;16.55;7.95;;;;;;;;;;5010340;28;20050;-66
2023/03/03 04:35:43;;;;;;;21.02;8.77;;;;;;;;;;5010166;28;20046;-66
2023/03/03 04:38:09;;;;;;;13.63;7.88;;;;;;;;;;5010672;28;20068;-66
2023/03/03 04:40:36;;;;;;;19.05;9.13;;;;;;;;;;5010291;28;20092;-66
2023/03/03 04:43:04;;;;;;;15.82;8.77;;;;;;;;;;5010431;28;20414;-66
2023/03/03 04:45:30;;;;;;;20.23;8.52;;;;;;;;;;5009996;28;20049;-66
2023/03/03 04:47:56;;;;;;;18.98;8.68;;;;;;;;;;5010488;28;20057;-66
2023/03/03 04:50:23;;;;;;;19.88;8.68;;;;;;;;;;5009916;28;20045;-66
2023/03/03 04:52:50;;;;;;;16.80;8.82;;;;;;;;;;5010088;28;20050;-66
2023/03/03 04:55:16;;;;;;;15.18;8.27;;;;;;;;;;5010096;28;20052;-66
2023/03/03 04:57:43;;;;;;;18.05;8.63;;;;;;;;;;5010046;28;20056;-66
2023/03/03 05:00:13;;;;;;;19.63;8.73;;;;;;;;;;5009687;28;20497;-66
2023/03/03 05:02:40;;;;;;;20.83;8.50;;;;;;;;;;5010188;28;20497;-65
2023/03/03 05:05:08;;;;;;;16.88;8.52;;;;;;;;;;5009585;28;20064;-66
2023/03/03 05:07:35;;;;;;;16.83;8.60;;;;;;;;;;5012431;28;20444;-68
2023/03/03 05:10:01;;;;;;;18.55;9.32;;;;;;;;;;5013956;28;20050;-66
2023/03/03 05:12:28;;;;;;;21.85;8.68;;;;;;;;;;5013701;28;20042;-66
2023/03/03 05:14:54;;;;;;;14.38;8.00;;;;;;;;;;5013856;28;20052;-66
2023/03/03 05:17:22;;;;;;;16.85;8.85;;;;;;;;;;5013907;28;20406;-66
2023/03/03 05:19:49;;;;;;;20.65;8.07;;;;;;;;;;5013400;28;20409;-66
2023/03/03 05:22:15;;;;;;;18.08;10.60;;;;;;;;;;5013919;28;20054;-66
2023/03/03 05:24:42;;;;;;;23.27;10.20;;;;;;;;;;5014091;28;20046;-66
2023/03/03 05:27:10;;;;;;;23.00;11.05;;;;;;;;;;5013809;28;20072;-66
2023/03/03 05:29:37;;;;;;;30.23;12.48;;;;;;;;;;5013858;28;20403;-66
2023/03/03 05:32:03;;;;;;;25.48;11.68;;;;;;;;;;5013498;28;20057;-66
2023/03/03 05:34:31;;;;;;;20.88;9.02;;;;;;;;;;5014105;28;20046;-66
2023/03/03 05:36:58;;;;;;;17.40;8.63;;;;;;;;;;5013343;28;20501;-66
2023/03/03 05:39:24;;;;;;;22.73;9.27;;;;;;;;;;5013634;28;20309;-66
2023/03/03 05:41:51;;;;;;;18.80;8.52;;;;;;;;;;5013433;28;20061;-66
2023/03/03 05:44:17;;;;;;;15.00;8.60;;;;;;;;;;5013287;28;20057;-66
2023/03/03 05:46:44;;;;;;;19.42;9.52;;;;;;;;;;5013603;28;20049;-66
2023/03/03 05:49:10;;;;;;;15.57;8.18;;;;;;;;;;5013514;28;20053;-66
2023/03/03 05:51:38;;;;;;;17.77;8.60;;;;;;;;;;5013326;28;20049;-66
2023/03/03 05:54:05;;;;;;;16.13;8.43;;;;;;;;;;5013227;28;20497;-65
2023/03/03 05:56:32;;;;;;;16.20;8.23;;;;;;;;;;5013096;28;20049;-66
2023/03/03 05:58:58;;;;;;;17.23;8.40;;;;;;;;;;5013164;28;20501;-66
2023/03/03 06:01:25;;;;;;;15.18;8.70;;;;;;;;;;5012731;28;20054;-68
2023/03/03 06:03:52;;;;;;;14.88;7.93;;;;;;;;;;5012952;28;20100;-66
2023/03/03 06:06:19;;;;;;;20.25;9.43;;;;;;;;;;5012934;28;20042;-66
2023/03/03 06:08:47;;;;;;;16.98;7.97;;;;;;;;;;5012976;28;20042;-66
2023/03/03 06:11:15;;;;;;;16.23;7.93;;;;;;;;;;5012783;28;20096;-67
2023/03/03 06:13:42;;;;;;;20.20;9.40;;;;;;;;;;5012656;28;20050;-67
2023/03/03 06:16:08;;;;;;;22.75;8.77;;;;;;;;;;5012815;28;20049;-67
2023/03/03 06:18:35;;;;;;;18.08;8.40;;;;;;;;;;5011613;28;20054;-67
2023/03/03 06:21:01;;;;;;;18.58;9.80;;;;;;;;;;5012809;28;20050;-66
2023/03/03 06:23:28;;;;;;;23.63;9.75;;;;;;;;;;5012550;28;20056;-67
2023/03/03 06:25:56;;;;;;;27.67;12.27;;;;;;;;;;5012895;28;20054;-66
2023/03/03 06:28:23;;;;;;;32.28;13.30;;;;;;;;;;5012308;28;20494;-66
2023/03/03 06:30:53;;;;;;;28.23;12.00;;;;;;;;;;5012949;28;20137;-66
2023/03/03 06:33:19;;;;;;;25.33;12.10;;;;;;;;;;5012242;28;20057;-67
2023/03/03 06:35:50;;;;;;;22.38;10.23;;;;;;;;;;5012773;28;20073;-67
2023/03/03 06:38:16;;;;;;;25.17;10.18;;;;;;;;;;5012309;28;20609;-66
2023/03/03 06:40:43;;;;;;;19.42;9.60;;;;;;;;;;5012818;28;20124;-67
2023/03/03 06:43:11;;;;;;;21.80;10.50;;;;;;;;;;5012498;28;20062;-68
2023/03/03 06:45:37;;;;;;;19.45;9.40;;;;;;;;;;5012818;28;20270;-67
2023/03/03 06:48:04;;;;;;;21.10;9.85;;;;;;;;;;5012020;28;20418;-67
2023/03/03 06:50:31;;;;;;;19.52;10.13;;;;;;;;;;5012294;28;20421;-67
2023/03/03 06:53:05;;;;;;;22.55;10.52;;;;;;;;;;5011864;28;20045;-66
2023/03/03 06:55:31;;;;;;;20.75;10.20;;;;;;;;;;5011870;28;20057;-67
2023/03/03 06:57:59;;;;;;;20.55;10.38;;;;;;;;;;5011929;28;20057;-67
2023/03/03 07:00:28;;;;;;;20.60;10.13;;;;;;;;;;5012252;28;20558;-67
2023/03/03 07:02:59;;;;;;;24.23;12.23;;;;;;;;;;5011901;28;20419;-66
2023/03/03 07:05:28;;;;;;;22.92;10.57;;;;;;;;;;5012431;28;20064;-66
2023/03/03 07:07:54;;;;;;;22.55;10.00;;;;;;;;;;5011789;28;20046;-66
2023/03/03 07:10:24;;;;;;;26.27;11.50;;;;;;;;;;5011373;28;20052;-67
2023/03/03 07:12:50;;;;;;;20.92;10.25;;;;;;;;;;5011667;28;20050;-66
2023/03/03 07:15:21;;;;;;;24.50;10.52;;;;;;;;;;5011586;28;20413;-67
2023/03/03 07:17:52;;;;;;;20.65;10.18;;;;;;;;;;5011696;28;20054;-66
2023/03/03 07:20:23;;;;;;;19.80;10.05;;;;;;;;;;5011532;28;20588;-66
2023/03/03 07:22:50;;;;;;;23.67;10.07;;;;;;;;;;5011549;28;20524;-66
2023/03/03 07:25:25;;;;;;;24.17;10.75;;;;;;;;;;5011190;28;20050;-66
2023/03/03 07:27:53;;;;;;;22.27;11.20;;;;;;;;;;5011704;28;20050;-66
2023/03/03 07:30:25;;;;;;;20.92;11.13;;;;;;;;;;5011169;28;20049;-66
2023/03/03 07:32:55;;;;;;;24.33;10.52;;;;;;;;;;5011425;28;20057;-66
2023/03/03 07:35:40;;;;;;;24.90;11.10;;;;;;;;;;5010852;28;20072;-66
2023/03/03 07:38:23;;;;;;;24.92;11.70;;;;;;;;;;5011303;28;20042;-66
2023/03/03 07:40:51;;;;;;;26.75;12.88;;;;;;;;;;5011222;28;20053;-66
2023/03/03 07:43:29;;;;;;;27.25;12.68;;;;;;;;;;5011152;28;20132;-67
2023/03/03 07:46:02;;;;;;;21.17;11.73;;;;;;;;;;5011746;28;20054;-66
2023/03/03 07:48:35;;;;;;;29.13;13.10;;;;;;;;;;5011444;28;20069;-66
2023/03/03 07:51:11;;;;;;;26.77;12.55;;;;;;;;;;5010755;28;20046;-66
2023/03/03 07:53:38;;;;;;;32.88;13.18;;;;;;;;;;5011558;28;20064;-66
2023/03/03 07:56:17;;;;;;;32.03;14.38;;;;;;;;;;5010537;28;20425;-66
2023/03/03 07:58:43;;;;;;;29.38;14.35;;;;;;;;;;5011194;28;20156;-66
2023/03/03 08:01:39;;;;;;;31.55;15.40;;;;;;;;;;5010848;28;20508;-66
2023/03/03 08:04:23;;;;;;;27.73;13.60;;;;;;;;;;5010806;28;20089;-67
2023/03/03 08:06:51;;;;;;;27.75;14.25;;;;;;;;;;5010848;28;20509;-67
2023/03/03 08:09:49;;;;;;;34.10;15.10;;;;;;;;;;5010597;28;20049;-66
2023/03/03 08:12:33;;;;;;;27.98;13.75;;;;;;;;;;5010359;28;20041;-66
2023/03/03 08:15:23;;;;;;;29.17;13.80;;;;;;;;;;5010492;28;20061;-66
2023/03/03 08:17:51;;;;;;;26.75;13.68;;;;;;;;;;5010698;28;20428;-67
2023/03/03 08:20:52;;;;;;;26.58;13.80;;;;;;;;;;5010460;28;20042;-66
2023/03/03 08:23:20;;;;;;;31.25;13.32;;;;;;;;;;5010647;28;20050;-66
2023/03/03 08:25:48;;;;;;;29.35;13.80;;;;;;;;;;5010401;28;20057;-66
2023/03/03 08:28:15;;;;;;;29.00;14.25;;;;;;;;;;5010683;28;20053;-66
2023/03/03 08:30:42;;;;;;;29.25;13.68;;;;;;;;;;5010327;28;20392;-67
2023/03/03 08:33:09;;;;;;;31.45;13.85;;;;;;;;;;5010331;28;20053;-66
2023/03/03 08:35:35;;;;;;;28.20;13.70;;;;;;;;;;5010133;28;20045;-66
2023/03/03 08:38:04;;;;;;;31.17;14.00;;;;;;;;;;5009939;28;20061;-66
2023/03/03 08:40:31;;;;;;;29.98;14.52;;;;;;;;;;5010473;28;20046;-66
2023/03/03 08:42:58;;;;;;;28.90;14.60;;;;;;;;;;5009403;28;20046;-66
2023/03/03 08:45:25;;;;;;;30.10;14.38;;;;;;;;;;5010465;28;20050;-67
2023/03/03 08:47:52;;;;;;;34.95;14.40;;;;;;;;;;5010154;28;20042;-66
2023/03/03 08:50:19;;;;;;;30.08;14.93;;;;;;;;;;5010515;28;20061;-66
2023/03/03 08:52:46;;;;;;;33.08;15.15;;;;;;;;;;5010723;28;20045;-67
2023/03/03 08:55:14;;;;;;;30.50;13.75;;;;;;;;;;5010589;28;20413;-66
2023/03/03 08:57:41;;;;;;;29.30;14.30;;;;;;;;;;5010136;28;20046;-66
2023/03/03 09:00:10;;;;;;;36.03;16.63;;;;;;;;;;5008133;28;20056;-67
2023/03/03 09:02:36;;;;;;;32.88;14.05;;;;;;;;;;5010116;28;20447;-66
2023/03/03 09:05:03;;;;;;;30.35;15.35;;;;;;;;;;5010035;28;20046;-66
2023/03/03 09:07:30;;;;;;;32.08;15.15;;;;;;;;;;5009573;28;20061;-66
2023/03/03 09:09:56;;;;;;;29.50;14.63;;;;;;;;;;5010189;28;20050;-66
2023/03/03 09:12:29;;;;;;;33.00;14.95;;;;;;;;;;5009665;28;20046;-67
2023/03/03 09:14:58;;;;;;;34.45;14.95;;;;;;;;;;5009918;28;20502;-66
2023/03/03 09:17:28;;;;;;;31.08;14.82;;;;;;;;;;5009464;28;20038;-66
2023/03/03 09:19:57;;;;;;;29.95;15.13;;;;;;;;;;5009707;28;20054;-66
2023/03/03 09:22:25;;;;;;;36.53;16.40;;;;;;;;;;5007754;28;20041;-66
2023/03/03 09:24:55;;;;;;;37.10;15.98;;;;;;;;;;5009462;28;20050;-66
2023/03/03 09:27:29;;;;;;;32.70;16.30;;;;;;;;;;5010146;28;20096;-67
2023/03/03 09:29:57;;;;;;;33.63;15.70;;;;;;;;;;5008427;28;20112;-66
2023/03/03 09:32:33;;;;;;;34.90;16.23;;;;;;;;;;5009833;28;20046;-66
2023/03/03 09:35:00;;;;;;;38.38;16.45;;;;;;;;;;5009413;28;20490;-66
2023/03/03 09:37:31;;;;;;;36.67;16.52;;;;;;;;;;5009500;28;20053;-67
2023/03/03 09:39:58;;;;;;;39.58;17.63;;;;;;;;;;5009516;28;20057;-67
2023/03/03 09:42:43;;;;;;;34.72;16.80;;;;;;;;;;5009559;28;20046;-66
2023/03/03 09:45:39;;;;;;;38.47;17.63;;;;;;;;;;5009526;28;20057;-66
2023/03/03 09:48:26;;;;;;;39.33;17.13;;;;;;;;;;5009465;28;20049;-66
2023/03/03 09:51:07;;;;;;;38.15;16.95;;;;;;;;;;5009424;28;20048;-66
2023/03/03 09:53:49;;;;;;;36.03;16.63;;;;;;;;;;5011412;28;20317;-66
2023/03/03 09:56:24;;;;;;;39.15;17.83;;;;;;;;;;5011119;28;20045;-66
2023/03/03 09:59:03;;;;;;;33.67;16.58;;;;;;;;;;5012986;28;20056;-66
2023/03/03 10:01:49;;;;;;;41.38;18.60;;;;;;;;;;5012907;28;20060;-67
2023/03/03 10:04:33;;;;;;;37.88;17.50;;;;;;;;;;4993421;28;20050;-66
2023/03/03 10:07:15;;;;;;;44.25;17.90;;;;;;;;;;4992907;28;20353;-65
2023/03/03 10:10:00;;;;;;;41.10;18.50;;;;;;;;;;4993150;28;20042;-65
2023/03/03 10:12:28;;;;;;;39.00;18.13;;;;;;;;;;4992937;28;20406;-65
2023/03/03 10:15:21;;;;;;;44.05;18.00;;;;;;;;;;4992829;28;20413;-65
2023/03/03 10:17:51;;;;;;;39.53;16.25;;;;;;;;;;4992416;28;20050;-64
2023/03/03 10:20:37;;;;;;;39.17;17.48;;;;;;;;;;4993215;28;20522;-64
2023/03/03 10:23:19;;;;;;;40.30;18.40;;;;;;;;;;5003279;28;20049;-65
2023/03/03 10:25:53;;;;;;;39.45;18.10;;;;;;;;;;5013079;28;20402;-64
2023/03/03 10:28:54;;;;;;;42.28;18.65;;;;;;;;;;5011613;28;20053;-65
2023/03/03 10:31:39;;;;;;;38.90;17.88;;;;;;;;;;5012534;28;20041;-64
2023/03/03 10:34:21;;;;;;;42.85;17.48;;;;;;;;;;4998960;28;20076;-65
2023/03/03 10:36:55;;;;;;;36.72;16.77;;;;;;;;;;5011990;28;20046;-65
2023/03/03 10:39:51;;;;;;;41.38;17.40;;;;;;;;;;5011939;28;20065;-64
2023/03/03 10:42:34;;;;;;;40.08;18.70;;;;;;;;;;5012150;28;20046;-64
2023/03/03 10:45:12;;;;;;;38.45;16.73;;;;;;;;;;5011596;28;20054;-64
2023/03/03 10:48:10;;;;;;;43.65;17.35;;;;;;;;;;5012002;28;20050;-64
2023/03/03 10:50:50;;;;;;;34.92;17.50;;;;;;;;;;5011849;28;20049;-65
2023/03/03 10:53:25;;;;;;;35.70;16.38;;;;;;;;;;5011507;28;20056;-65
2023/03/03 10:56:11;;;;;;;42.97;17.27;;;;;;;;;;5011965;28;20494;-65
2023/03/03 10:58:48;;;;;;;37.83;16.05;;;;;;;;;;5011826;28;20050;-64
2023/03/03 11:01:24;;;;;;;37.47;17.55;;;;;;;;;;5011958;28;20046;-65
2023/03/03 11:04:21;;;;;;;35.90;16.63;;;;;;;;;;5006331;28;20050;-65
2023/03/03 11:06:58;;;;;;;36.38;15.80;;;;;;;;;;5012156;28;20543;-65
2023/03/03 11:09:40;;;;;;;38.72;16.40;;;;;;;;;;5012047;28;20050;-64
2023/03/03 11:12:21;;;;;;;36.58;16.00;;;;;;;;;;5011738;28;20141;-65
2023/03/03 11:14:52;;;;;;;43.47;17.30;;;;;;;;;;5012264;28;20510;-65
2023/03/03 11:17:26;;;;;;;38.67;17.45;;;;;;;;;;5012040;28;20467;-65
2023/03/03 11:20:06;;;;;;;38.85;16.95;;;;;;;;;;5012200;28;20137;-65
2023/03/03 11:22:42;;;;;;;38.92;16.92;;;;;;;;;;5009102;28;20066;-65
2023/03/03 11:25:23;;;;;;;39.33;18.00;;;;;;;;;;4992720;28;20425;-65
2023/03/03 11:28:22;;;;;;;44.05;16.55;;;;;;;;;;4991426;28;20068;-65
2023/03/03 11:31:11;;;;;;;44.28;18.08;;;;;;;;;;4978536;28;20050;-64
2023/03/03 11:33:43;;;;;;;34.78;14.98;;;;;;;;;;4991052;28;20410;-64
2023/03/03 11:36:18;;;;;;;35.97;15.88;;;;;;;;;;4991912;28;20141;-65
2023/03/03 11:38:51;;;;;;;32.97;16.30;;;;;;;;;;4991407;28;20072;-64
2023/03/03 11:41:29;;;;;;;35.63;17.48;;;;;;;;;;4991707;28;20047;-65
2023/03/03 11:44:00;;;;;;;32.22;15.85;;;;;;;;;;4991320;28;20061;-67
2023/03/03 11:46:34;;;;;;;35.15;15.77;;;;;;;;;;4993851;28;20096;-65
2023/03/03 11:49:05;;;;;;;32.50;16.27;;;;;;;;;;5010871;28;20395;-65
2023/03/03 11:51:44;;;;;;;38.65;16.38;;;;;;;;;;5010887;28;20133;-64
2023/03/03 11:54:18;;;;;;;37.28;15.15;;;;;;;;;;5010780;28;20058;-65
2023/03/03 11:56:47;;;;;;;34.65;15.90;;;;;;;;;;5010933;28;20046;-65
2023/03/03 11:59:48;;;;;;;37.15;16.38;;;;;;;;;;5010225;28;20100;-65
2023/03/03 12:02:30;;;;;;;34.25;15.90;;;;;;;;;;5007410;28;20108;-65
2023/03/03 12:05:04;;;;;;;33.22;14.85;;;;;;;;;;5010736;28;20046;-65
2023/03/03 12:07:41;;;;;;;34.22;14.27;;;;;;;;;;5010709;28;20470;-65
2023/03/03 12:10:21;;;;;;;30.40;14.13;;;;;;;;;;5010637;28;20510;-64
2023/03/03 12:12:54;;;;;;;29.23;14.35;;;;;;;;;;5006220;28;20061;-65
2023/03/03 12:15:26;;;;;;;;;;;;;;;;;;5009842;28;20050;-64
2023/03/03 12:18:23;;;;;;;26.98;13.88;;;;;;;;;;5003055;28;20370;-65
2023/03/03 12:21:05;;;;;;;31.20;13.85;;;;;;;;;;5005257;28;20061;-64
2023/03/03 12:23:58;;;;;;;29.05;13.55;;;;;;;;;;5010374;28;20132;-65
2023/03/03 12:26:32;;;;;;;29.27;12.18;;;;;;;;;;5010783;28;20129;-65
2023/03/03 12:29:04;;;;;;;29.35;12.60;;;;;;;;;;5010241;28;20050;-64
2023/03/03 12:31:39;;;;;;;25.02;11.95;;;;;;;;;;5010363;28;20498;-64
2023/03/03 12:34:15;;;;;;;25.95;12.27;;;;;;;;;;5010447;28;20053;-64
2023/03/03 12:37:04;;;;;;;26.42;12.57;;;;;;;;;;5006444;28;20547;-65
2023/03/03 12:39:49;;;;;;;28.73;12.93;;;;;;;;;;5009275;28;20057;-65
2023/03/03 12:42:26;;;;;;;28.50;13.88;;;;;;;;;;4990465;28;20129;-65
2023/03/03 12:45:02;;;;;;;25.25;12.80;;;;;;;;;;4990562;28;20057;-65
2023/03/03 12:47:33;;;;;;;27.02;11.73;;;;;;;;;;4990293;28;20061;-65
2023/03/03 12:50:19;;;;;;;28.60;11.82;;;;;;;;;;4990654;28;20050;-65
2023/03/03 12:52:53;;;;;;;26.70;12.20;;;;;;;;;;4990579;28;20050;-65
2023/03/03 12:55:30;;;;;;;32.60;14.30;;;;;;;;;;4990843;28;20170;-65
2023/03/03 12:58:03;;;;;;;29.33;13.07;;;;;;;;;;4990085;28;20118;-65
2023/03/03 13:00:41;;;;;;;29.30;12.55;;;;;;;;;;4998587;28;20323;-66
2023/03/03 13:03:17;;;;;;;26.40;13.23;;;;;;;;;;5009718;28;20049;-64
2023/03/03 13:05:56;;;;;;;24.80;12.05;;;;;;;;;;5007263;28;20042;-64
2023/03/03 13:08:38;;;;;;;26.83;11.40;;;;;;;;;;5009477;28;20046;-65
2023/03/03 13:11:27;;;;;;;26.52;11.70;;;;;;;;;;5010442;28;20056;-65
2023/03/03 13:14:04;;;;;;;25.65;12.10;;;;;;;;;;5009857;28;20074;-64
2023/03/03 13:16:35;;;;;;;24.75;12.07;;;;;;;;;;5010420;28;20060;-65
2023/03/03 13:19:08;;;;;;;32.10;12.70;;;;;;;;;;5009297;28;20050;-65
2023/03/03 13:21:40;;;;;;;25.42;12.77;;;;;;;;;;5010287;28;20060;-65
2023/03/03 13:24:17;;;;;;;27.65;12.63;;;;;;;;;;5009425;28;20502;-65
2023/03/03 13:26:49;;;;;;;26.98;12.07;;;;;;;;;;5010152;28;20056;-65
2023/03/03 13:29:21;;;;;;;27.00;12.27;;;;;;;;;;5012333;28;20046;-64
2023/03/03 13:31:50;;;;;;;27.75;13.32;;;;;;;;;;5011297;28;20052;-65
2023/03/03 13:34:30;;;;;;;22.42;11.43;;;;;;;;;;5011743;28;20048;-65
2023/03/03 13:37:01;;;;;;;25.48;11.60;;;;;;;;;;5011631;28;20042;-65
2023/03/03 13:39:33;;;;;;;21.80;11.57;;;;;;;;;;5013049;28;20046;-65
2023/03/03 13:42:04;;;;;;;24.33;12.10;;;;;;;;;;5012946;28;20057;-65
2023/03/03 13:44:36;;;;;;;23.13;12.00;;;;;;;;;;5013135;28;20068;-65
2023/03/03 13:47:13;;;;;;;24.20;12.40;;;;;;;;;;5013235;28;20395;-65
2023/03/03 13:49:57;;;;;;;21.63;11.98;;;;;;;;;;5012833;28;20177;-65
2023/03/03 13:52:27;;;;;;;22.08;11.68;;;;;;;;;;5012804;28;20489;-65
2023/03/03 13:55:09;;;;;;;21.50;10.88;;;;;;;;;;5012998;28;20048;-65
2023/03/03 13:57:48;;;;;;;19.85;11.65;;;;;;;;;;5012812;28;20050;-65
2023/03/03 14:00:23;;;;;;;16.70;10.10;;;;;;;;;;5012662;28;20053;-64
2023/03/03 14:03:17;;;;;;;17.15;10.50;;;;;;;;;;5012678;28;20145;-65
2023/03/03 14:05:45;;;;;;;19.95;11.98;;;;;;;;;;5012519;28;20045;-65
2023/03/03 14:08:24;;;;;;;20.52;12.52;;;;;;;;;;5009190;28;20061;-64
2023/03/03 14:11:03;;;;;;;20.92;12.68;;;;;;;;;;5012196;28;20049;-65
2023/03/03 14:13:40;;;;;;;21.25;13.82;;;;;;;;;;5012513;28;20115;-64
2023/03/03 14:16:12;;;;;;;20.17;12.40;;;;;;;;;;5012331;28;20046;-65
2023/03/03 14:18:45;;;;;;;21.13;12.30;;;;;;;;;;5012677;28;20064;-65
2023/03/03 14:21:16;;;;;;;20.80;12.02;;;;;;;;;;5012518;28;20086;-64
2023/03/03 14:23:51;;;;;;;19.00;12.25;;;;;;;;;;5013074;28;20049;-65
2023/03/03 14:26:18;;;;;;;18.23;11.10;;;;;;;;;;5012390;28;20046;-65
2023/03/03 14:28:48;;;;;;;18.73;12.02;;;;;;;;;;4998132;28;20129;-64
2023/03/03 14:31:20;;;;;;;23.52;12.10;;;;;;;;;;4992474;28;20046;-65
2023/03/03 14:33:58;;;;;;;20.15;11.18;;;;;;;;;;5004697;28;20050;-65
2023/03/03 14:36:31;;;;;;;19.45;11.18;;;;;;;;;;5011831;28;20433;-64
2023/03/03 14:38:58;;;;;;;18.60;10.18;;;;;;;;;;5011190;28;20046;-63
2023/03/03 14:41:36;;;;;;;19.38;10.90;;;;;;;;;;5011796;28;20050;-64
2023/03/03 14:44:25;;;;;;;19.52;10.23;;;;;;;;;;5011731;28;20112;-63
2023/03/03 14:47:05;;;;;;;19.20;10.77;;;;;;;;;;5011926;28;20049;-63
2023/03/03 14:49:35;;;;;;;17.88;9.77;;;;;;;;;;5011976;28;20402;-64
2023/03/03 14:52:03;;;;;;;20.27;9.38;;;;;;;;;;5011970;28;20536;-64